sensor_id;sensor_type;location;lat;lon;timestamp;P1;durP1;ratioP1;P2;durP2;ratioP2
20379;SDS011;10349;48.666;8.948;2022-08-25T00:02:25;4.13;;;3.83;;
20379;SDS011;10349;48.666;8.948;2022-08-25T00:04:51;3.40;;;3.20;;
20379;SDS011;10349;48.666;8.948;2022-08-25T00:07:16;3.57;;;3.37;;
20379;SDS011;10349;48.666;8.948;2022-08-25T00:09:42;4.40;;;4.10;;
20379;SDS011;10349;48.666;8.948;2022-08-25T00:12:07;3.77;;;3.47;;
20379;SDS011;10349;48.666;8.948;2022-08-25T00:14:35;3.80;;;3.50;;
20379;SDS011;10349;48.666;8.948;2022-08-25T00:17:02;3.27;;;3.07;;
20379;SDS011;10349;48.666;8.948;2022-08-25T00:19:30;3.90;;;3.50;;
20379;SDS011;10349;48.666;8.948;2022-08-25T00:21:58;4.07;;;3.87;;
20379;SDS011;10349;48.666;8.948;2022-08-25T00:24:25;3.00;;;2.80;;
20379;SDS011;10349;48.666;8.948;2022-08-25T00:26:52;3.57;;;3.27;;
20379;SDS011;10349;48.666;8.948;2022-08-25T00:29:20;3.10;;;2.90;;
20379;SDS011;10349;48.666;8.948;2022-08-25T00:31:47;3.43;;;3.13;;
20379;SDS011;10349;48.666;8.948;2022-08-25T00:34:15;3.80;;;3.43;;
20379;SDS011;10349;48.666;8.948;2022-08-25T00:36:44;3.23;;;3.03;;
20379;SDS011;10349;48.666;8.948;2022-08-25T00:39:11;4.20;;;3.90;;
20379;SDS011;10349;48.666;8.948;2022-08-25T00:41:38;3.87;;;3.67;;
20379;SDS011;10349;48.666;8.948;2022-08-25T00:44:06;4.03;;;3.33;;
20379;SDS011;10349;48.666;8.948;2022-08-25T00:46:35;4.00;;;3.80;;
20379;SDS011;10349;48.666;8.948;2022-08-25T00:49:09;4.20;;;3.90;;
20379;SDS011;10349;48.666;8.948;2022-08-25T00:51:39;3.93;;;3.73;;
20379;SDS011;10349;48.666;8.948;2022-08-25T00:54:10;3.97;;;3.57;;
20379;SDS011;10349;48.666;8.948;2022-08-25T00:56:41;4.00;;;3.70;;
20379;SDS011;10349;48.666;8.948;2022-08-25T00:59:07;3.30;;;3.10;;
20379;SDS011;10349;48.666;8.948;2022-08-25T01:01:34;4.17;;;3.83;;
20379;SDS011;10349;48.666;8.948;2022-08-25T01:03:59;3.97;;;3.73;;
20379;SDS011;10349;48.666;8.948;2022-08-25T01:06:26;11.23;;;4.33;;
20379;SDS011;10349;48.666;8.948;2022-08-25T01:08:57;3.47;;;3.17;;
20379;SDS011;10349;48.666;8.948;2022-08-25T01:11:23;3.43;;;3.23;;
20379;SDS011;10349;48.666;8.948;2022-08-25T01:13:53;3.77;;;3.57;;
20379;SDS011;10349;48.666;8.948;2022-08-25T01:16:20;3.50;;;3.20;;
20379;SDS011;10349;48.666;8.948;2022-08-25T01:21:18;3.90;;;3.67;;
20379;SDS011;10349;48.666;8.948;2022-08-25T01:23:46;4.30;;;4.00;;
20379;SDS011;10349;48.666;8.948;2022-08-25T01:26:18;4.10;;;3.83;;
20379;SDS011;10349;48.666;8.948;2022-08-25T01:28:46;3.53;;;3.33;;
20379;SDS011;10349;48.666;8.948;2022-08-25T01:31:32;4.50;;;4.20;;
20379;SDS011;10349;48.666;8.948;2022-08-25T01:33:59;4.00;;;3.77;;
20379;SDS011;10349;48.666;8.948;2022-08-25T01:36:26;4.03;;;3.73;;
20379;SDS011;10349;48.666;8.948;2022-08-25T01:38:53;4.40;;;3.80;;
20379;SDS011;10349;48.666;8.948;2022-08-25T01:41:29;4.00;;;3.80;;
20379;SDS011;10349;48.666;8.948;2022-08-25T01:43:59;4.77;;;4.33;;
20379;SDS011;10349;48.666;8.948;2022-08-25T01:46:25;4.73;;;4.37;;
20379;SDS011;10349;48.666;8.948;2022-08-25T01:48:52;4.07;;;3.80;;
20379;SDS011;10349;48.666;8.948;2022-08-25T01:51:19;4.37;;;4.07;;
20379;SDS011;10349;48.666;8.948;2022-08-25T01:53:47;4.00;;;3.70;;
20379;SDS011;10349;48.666;8.948;2022-08-25T01:56:15;3.73;;;3.53;;
20379;SDS011;10349;48.666;8.948;2022-08-25T01:58:43;6.57;;;5.53;;
20379;SDS011;10349;48.666;8.948;2022-08-25T02:01:16;5.27;;;4.80;;
20379;SDS011;10349;48.666;8.948;2022-08-25T02:03:46;4.10;;;3.70;;
20379;SDS011;10349;48.666;8.948;2022-08-25T02:06:16;4.43;;;4.03;;
20379;SDS011;10349;48.666;8.948;2022-08-25T02:08:51;3.30;;;3.10;;
20379;SDS011;10349;48.666;8.948;2022-08-25T02:11:19;3.93;;;3.63;;
20379;SDS011;10349;48.666;8.948;2022-08-25T02:13:47;3.50;;;3.30;;
20379;SDS011;10349;48.666;8.948;2022-08-25T02:16:17;3.87;;;3.57;;
20379;SDS011;10349;48.666;8.948;2022-08-25T02:18:49;4.30;;;4.00;;
20379;SDS011;10349;48.666;8.948;2022-08-25T02:21:15;4.90;;;4.47;;
20379;SDS011;10349;48.666;8.948;2022-08-25T02:23:41;4.50;;;4.20;;
20379;SDS011;10349;48.666;8.948;2022-08-25T02:26:07;6.33;;;3.60;;
20379;SDS011;10349;48.666;8.948;2022-08-25T02:28:34;3.80;;;3.60;;
20379;SDS011;10349;48.666;8.948;2022-08-25T02:31:01;4.33;;;4.07;;
20379;SDS011;10349;48.666;8.948;2022-08-25T02:33:28;8.93;;;3.77;;
20379;SDS011;10349;48.666;8.948;2022-08-25T02:36:00;3.97;;;3.67;;
20379;SDS011;10349;48.666;8.948;2022-08-25T02:38:27;3.50;;;3.30;;
20379;SDS011;10349;48.666;8.948;2022-08-25T02:40:53;3.90;;;3.70;;
20379;SDS011;10349;48.666;8.948;2022-08-25T02:43:23;4.93;;;4.63;;
20379;SDS011;10349;48.666;8.948;2022-08-25T02:45:50;4.10;;;3.77;;
20379;SDS011;10349;48.666;8.948;2022-08-25T02:48:17;4.27;;;3.87;;
20379;SDS011;10349;48.666;8.948;2022-08-25T02:50:48;4.50;;;4.20;;
20379;SDS011;10349;48.666;8.948;2022-08-25T02:53:17;4.57;;;3.80;;
20379;SDS011;10349;48.666;8.948;2022-08-25T02:55:43;4.00;;;3.80;;
20379;SDS011;10349;48.666;8.948;2022-08-25T02:58:09;4.07;;;3.77;;
20379;SDS011;10349;48.666;8.948;2022-08-25T03:00:35;4.47;;;4.17;;
20379;SDS011;10349;48.666;8.948;2022-08-25T03:03:02;4.53;;;4.20;;
20379;SDS011;10349;48.666;8.948;2022-08-25T03:05:29;4.80;;;4.50;;
20379;SDS011;10349;48.666;8.948;2022-08-25T03:07:54;4.37;;;4.07;;
20379;SDS011;10349;48.666;8.948;2022-08-25T03:10:20;4.73;;;4.37;;
20379;SDS011;10349;48.666;8.948;2022-08-25T03:12:46;4.00;;;3.70;;
20379;SDS011;10349;48.666;8.948;2022-08-25T03:15:12;4.67;;;4.37;;
20379;SDS011;10349;48.666;8.948;2022-08-25T03:17:43;4.10;;;3.80;;
20379;SDS011;10349;48.666;8.948;2022-08-25T03:20:10;4.10;;;3.70;;
20379;SDS011;10349;48.666;8.948;2022-08-25T03:22:36;4.50;;;4.00;;
20379;SDS011;10349;48.666;8.948;2022-08-25T03:25:02;4.50;;;4.10;;
20379;SDS011;10349;48.666;8.948;2022-08-25T03:27:47;4.47;;;4.17;;
20379;SDS011;10349;48.666;8.948;2022-08-25T03:30:13;4.20;;;3.90;;
20379;SDS011;10349;48.666;8.948;2022-08-25T03:32:40;4.63;;;4.33;;
20379;SDS011;10349;48.666;8.948;2022-08-25T03:35:06;4.70;;;4.30;;
20379;SDS011;10349;48.666;8.948;2022-08-25T03:37:32;4.37;;;3.97;;
20379;SDS011;10349;48.666;8.948;2022-08-25T03:39:57;4.90;;;4.50;;
20379;SDS011;10349;48.666;8.948;2022-08-25T03:42:23;4.40;;;4.10;;
20379;SDS011;10349;48.666;8.948;2022-08-25T03:44:50;4.43;;;4.13;;
20379;SDS011;10349;48.666;8.948;2022-08-25T03:47:16;4.60;;;4.23;;
20379;SDS011;10349;48.666;8.948;2022-08-25T03:49:41;4.27;;;3.77;;
20379;SDS011;10349;48.666;8.948;2022-08-25T03:52:07;5.23;;;4.83;;
20379;SDS011;10349;48.666;8.948;2022-08-25T03:54:33;5.30;;;4.90;;
20379;SDS011;10349;48.666;8.948;2022-08-25T03:56:58;5.07;;;4.77;;
20379;SDS011;10349;48.666;8.948;2022-08-25T03:59:24;4.83;;;4.53;;
20379;SDS011;10349;48.666;8.948;2022-08-25T04:01:51;4.37;;;4.03;;
20379;SDS011;10349;48.666;8.948;2022-08-25T04:04:17;4.43;;;4.03;;
20379;SDS011;10349;48.666;8.948;2022-08-25T04:06:43;4.60;;;4.30;;
20379;SDS011;10349;48.666;8.948;2022-08-25T04:09:09;4.77;;;4.37;;
20379;SDS011;10349;48.666;8.948;2022-08-25T04:11:35;4.33;;;3.93;;
20379;SDS011;10349;48.666;8.948;2022-08-25T04:14:02;4.67;;;4.37;;
20379;SDS011;10349;48.666;8.948;2022-08-25T04:16:29;3.90;;;3.70;;
20379;SDS011;10349;48.666;8.948;2022-08-25T04:18:57;7.53;;;4.30;;
20379;SDS011;10349;48.666;8.948;2022-08-25T04:21:25;4.50;;;4.20;;
20379;SDS011;10349;48.666;8.948;2022-08-25T04:23:52;4.57;;;4.17;;
20379;SDS011;10349;48.666;8.948;2022-08-25T04:28:47;4.60;;;4.30;;
20379;SDS011;10349;48.666;8.948;2022-08-25T04:31:14;4.20;;;3.77;;
20379;SDS011;10349;48.666;8.948;2022-08-25T04:33:41;3.80;;;3.50;;
20379;SDS011;10349;48.666;8.948;2022-08-25T04:36:08;3.90;;;3.63;;
20379;SDS011;10349;48.666;8.948;2022-08-25T04:38:36;4.47;;;4.17;;
20379;SDS011;10349;48.666;8.948;2022-08-25T04:41:04;4.33;;;4.03;;
20379;SDS011;10349;48.666;8.948;2022-08-25T04:43:31;4.37;;;4.07;;
20379;SDS011;10349;48.666;8.948;2022-08-25T04:45:57;4.63;;;4.33;;
20379;SDS011;10349;48.666;8.948;2022-08-25T04:48:24;5.10;;;4.50;;
20379;SDS011;10349;48.666;8.948;2022-08-25T04:50:50;5.40;;;5.00;;
20379;SDS011;10349;48.666;8.948;2022-08-25T04:53:16;4.47;;;4.07;;
20379;SDS011;10349;48.666;8.948;2022-08-25T04:55:44;5.00;;;4.70;;
20379;SDS011;10349;48.666;8.948;2022-08-25T04:58:11;4.83;;;4.53;;
20379;SDS011;10349;48.666;8.948;2022-08-25T05:00:38;5.30;;;4.80;;
20379;SDS011;10349;48.666;8.948;2022-08-25T05:03:05;5.33;;;4.83;;
20379;SDS011;10349;48.666;8.948;2022-08-25T05:05:31;4.57;;;4.27;;
20379;SDS011;10349;48.666;8.948;2022-08-25T05:08:01;4.90;;;4.60;;
20379;SDS011;10349;48.666;8.948;2022-08-25T05:10:27;4.80;;;4.50;;
20379;SDS011;10349;48.666;8.948;2022-08-25T05:12:52;5.80;;;5.33;;
20379;SDS011;10349;48.666;8.948;2022-08-25T05:15:18;5.17;;;4.77;;
20379;SDS011;10349;48.666;8.948;2022-08-25T05:18:02;6.30;;;5.37;;
20379;SDS011;10349;48.666;8.948;2022-08-25T05:20:28;4.67;;;4.27;;
20379;SDS011;10349;48.666;8.948;2022-08-25T05:22:55;5.70;;;4.50;;
20379;SDS011;10349;48.666;8.948;2022-08-25T05:25:22;4.10;;;3.90;;
20379;SDS011;10349;48.666;8.948;2022-08-25T05:27:48;4.90;;;4.60;;
20379;SDS011;10349;48.666;8.948;2022-08-25T05:30:14;5.20;;;4.80;;
20379;SDS011;10349;48.666;8.948;2022-08-25T05:32:40;5.40;;;5.00;;
20379;SDS011;10349;48.666;8.948;2022-08-25T05:35:08;5.27;;;4.67;;
20379;SDS011;10349;48.666;8.948;2022-08-25T05:37:34;5.73;;;5.33;;
20379;SDS011;10349;48.666;8.948;2022-08-25T05:40:01;5.17;;;4.80;;
20379;SDS011;10349;48.666;8.948;2022-08-25T05:42:28;4.90;;;4.57;;
20379;SDS011;10349;48.666;8.948;2022-08-25T05:44:53;5.37;;;4.97;;
20379;SDS011;10349;48.666;8.948;2022-08-25T05:47:19;5.87;;;5.37;;
20379;SDS011;10349;48.666;8.948;2022-08-25T05:49:45;5.13;;;4.67;;
20379;SDS011;10349;48.666;8.948;2022-08-25T05:52:11;4.70;;;4.40;;
20379;SDS011;10349;48.666;8.948;2022-08-25T05:54:37;5.33;;;4.83;;
20379;SDS011;10349;48.666;8.948;2022-08-25T05:57:04;5.33;;;4.93;;
20379;SDS011;10349;48.666;8.948;2022-08-25T05:59:30;5.00;;;4.60;;
20379;SDS011;10349;48.666;8.948;2022-08-25T06:01:56;5.10;;;4.77;;
20379;SDS011;10349;48.666;8.948;2022-08-25T06:04:40;5.37;;;4.90;;
20379;SDS011;10349;48.666;8.948;2022-08-25T06:07:06;5.30;;;4.90;;
20379;SDS011;10349;48.666;8.948;2022-08-25T06:09:32;5.60;;;5.20;;
20379;SDS011;10349;48.666;8.948;2022-08-25T06:11:57;5.67;;;5.17;;
20379;SDS011;10349;48.666;8.948;2022-08-25T06:14:23;5.77;;;5.27;;
20379;SDS011;10349;48.666;8.948;2022-08-25T06:16:49;6.57;;;5.93;;
20379;SDS011;10349;48.666;8.948;2022-08-25T06:19:16;5.57;;;5.00;;
20379;SDS011;10349;48.666;8.948;2022-08-25T06:21:42;9.60;;;6.10;;
20379;SDS011;10349;48.666;8.948;2022-08-25T06:24:08;8.93;;;5.43;;
20379;SDS011;10349;48.666;8.948;2022-08-25T06:26:34;6.13;;;5.57;;
20379;SDS011;10349;48.666;8.948;2022-08-25T06:29:01;5.87;;;5.27;;
20379;SDS011;10349;48.666;8.948;2022-08-25T06:31:27;6.73;;;4.60;;
20379;SDS011;10349;48.666;8.948;2022-08-25T06:33:53;6.40;;;5.80;;
20379;SDS011;10349;48.666;8.948;2022-08-25T06:36:19;5.10;;;4.70;;
20379;SDS011;10349;48.666;8.948;2022-08-25T06:38:45;5.90;;;5.30;;
20379;SDS011;10349;48.666;8.948;2022-08-25T06:41:12;6.03;;;5.53;;
20379;SDS011;10349;48.666;8.948;2022-08-25T06:43:39;7.33;;;6.63;;
20379;SDS011;10349;48.666;8.948;2022-08-25T06:46:09;6.77;;;5.87;;
20379;SDS011;10349;48.666;8.948;2022-08-25T06:48:37;5.40;;;4.90;;
20379;SDS011;10349;48.666;8.948;2022-08-25T06:51:11;6.93;;;6.33;;
20379;SDS011;10349;48.666;8.948;2022-08-25T06:53:38;6.07;;;5.40;;
20379;SDS011;10349;48.666;8.948;2022-08-25T06:56:04;5.83;;;5.33;;
20379;SDS011;10349;48.666;8.948;2022-08-25T06:58:30;6.37;;;5.77;;
20379;SDS011;10349;48.666;8.948;2022-08-25T07:01:05;6.40;;;5.80;;
20379;SDS011;10349;48.666;8.948;2022-08-25T07:03:46;6.23;;;5.30;;
20379;SDS011;10349;48.666;8.948;2022-08-25T07:06:12;6.00;;;5.40;;
20379;SDS011;10349;48.666;8.948;2022-08-25T07:08:39;8.33;;;5.57;;
20379;SDS011;10349;48.666;8.948;2022-08-25T07:11:06;5.50;;;5.10;;
20379;SDS011;10349;48.666;8.948;2022-08-25T07:13:33;5.67;;;4.70;;
20379;SDS011;10349;48.666;8.948;2022-08-25T07:16:00;5.27;;;4.77;;
20379;SDS011;10349;48.666;8.948;2022-08-25T07:18:26;3.90;;;3.70;;
20379;SDS011;10349;48.666;8.948;2022-08-25T07:20:51;6.63;;;4.60;;
20379;SDS011;10349;48.666;8.948;2022-08-25T07:23:18;5.53;;;5.03;;
20379;SDS011;10349;48.666;8.948;2022-08-25T07:25:45;5.63;;;5.10;;
20379;SDS011;10349;48.666;8.948;2022-08-25T07:28:10;4.90;;;4.30;;
20379;SDS011;10349;48.666;8.948;2022-08-25T07:30:36;6.60;;;4.90;;
20379;SDS011;10349;48.666;8.948;2022-08-25T07:33:02;5.60;;;5.10;;
20379;SDS011;10349;48.666;8.948;2022-08-25T07:35:28;5.47;;;4.97;;
20379;SDS011;10349;48.666;8.948;2022-08-25T07:37:56;4.73;;;4.37;;
20379;SDS011;10349;48.666;8.948;2022-08-25T07:40:29;6.77;;;4.57;;
20379;SDS011;10349;48.666;8.948;2022-08-25T07:43:01;5.60;;;5.17;;
20379;SDS011;10349;48.666;8.948;2022-08-25T07:45:32;4.90;;;4.50;;
20379;SDS011;10349;48.666;8.948;2022-08-25T07:48:00;5.37;;;4.87;;
20379;SDS011;10349;48.666;8.948;2022-08-25T07:50:34;7.37;;;5.23;;
20379;SDS011;10349;48.666;8.948;2022-08-25T07:53:03;5.10;;;4.70;;
20379;SDS011;10349;48.666;8.948;2022-08-25T07:55:29;5.50;;;4.87;;
20379;SDS011;10349;48.666;8.948;2022-08-25T07:57:56;5.57;;;5.10;;
20379;SDS011;10349;48.666;8.948;2022-08-25T08:00:24;6.27;;;5.63;;
20379;SDS011;10349;48.666;8.948;2022-08-25T08:02:52;5.30;;;4.90;;
20379;SDS011;10349;48.666;8.948;2022-08-25T08:05:17;5.37;;;4.87;;
20379;SDS011;10349;48.666;8.948;2022-08-25T08:07:43;4.83;;;4.37;;
20379;SDS011;10349;48.666;8.948;2022-08-25T08:10:10;5.73;;;5.23;;
20379;SDS011;10349;48.666;8.948;2022-08-25T08:12:37;5.07;;;4.67;;
20379;SDS011;10349;48.666;8.948;2022-08-25T08:15:03;5.13;;;4.73;;
20379;SDS011;10349;48.666;8.948;2022-08-25T08:17:29;5.93;;;5.43;;
20379;SDS011;10349;48.666;8.948;2022-08-25T08:19:56;4.90;;;4.50;;
20379;SDS011;10349;48.666;8.948;2022-08-25T08:22:22;5.07;;;4.67;;
20379;SDS011;10349;48.666;8.948;2022-08-25T08:24:48;4.57;;;4.17;;
20379;SDS011;10349;48.666;8.948;2022-08-25T08:27:13;5.70;;;5.13;;
20379;SDS011;10349;48.666;8.948;2022-08-25T08:29:40;6.60;;;5.40;;
20379;SDS011;10349;48.666;8.948;2022-08-25T08:32:06;4.67;;;4.37;;
20379;SDS011;10349;48.666;8.948;2022-08-25T08:34:33;7.27;;;5.50;;
20379;SDS011;10349;48.666;8.948;2022-08-25T08:36:59;5.10;;;4.70;;
20379;SDS011;10349;48.666;8.948;2022-08-25T08:39:26;4.93;;;4.60;;
20379;SDS011;10349;48.666;8.948;2022-08-25T08:50:05;5.70;;;5.07;;
20379;SDS011;10349;48.666;8.948;2022-08-25T08:52:48;5.53;;;5.03;;
20379;SDS011;10349;48.666;8.948;2022-08-25T08:57:56;6.10;;;5.60;;
20379;SDS011;10349;48.666;8.948;2022-08-25T09:00:24;4.80;;;4.40;;
20379;SDS011;10349;48.666;8.948;2022-08-25T09:02:55;5.40;;;5.00;;
20379;SDS011;10349;48.666;8.948;2022-08-25T09:05:25;4.80;;;4.40;;
20379;SDS011;10349;48.666;8.948;2022-08-25T09:07:55;4.83;;;4.23;;
20379;SDS011;10349;48.666;8.948;2022-08-25T09:10:25;5.30;;;4.90;;
20379;SDS011;10349;48.666;8.948;2022-08-25T09:13:02;4.87;;;4.47;;
20379;SDS011;10349;48.666;8.948;2022-08-25T09:18:43;5.07;;;4.67;;
20379;SDS011;10349;48.666;8.948;2022-08-25T09:21:16;5.20;;;4.80;;
20379;SDS011;10349;48.666;8.948;2022-08-25T09:24:18;4.83;;;4.43;;
20379;SDS011;10349;48.666;8.948;2022-08-25T09:27:07;4.33;;;4.07;;
20379;SDS011;10349;48.666;8.948;2022-08-25T09:30:09;5.17;;;4.67;;
20379;SDS011;10349;48.666;8.948;2022-08-25T09:32:41;4.77;;;4.47;;
20379;SDS011;10349;48.666;8.948;2022-08-25T09:35:13;5.07;;;4.67;;
20379;SDS011;10349;48.666;8.948;2022-08-25T09:38:00;5.30;;;4.90;;
20379;SDS011;10349;48.666;8.948;2022-08-25T09:40:29;6.83;;;4.70;;
20379;SDS011;10349;48.666;8.948;2022-08-25T09:42:57;5.93;;;5.43;;
20379;SDS011;10349;48.666;8.948;2022-08-25T09:53:58;5.30;;;4.80;;
20379;SDS011;10349;48.666;8.948;2022-08-25T09:56:31;4.63;;;4.27;;
20379;SDS011;10349;48.666;8.948;2022-08-25T10:01:54;4.40;;;4.10;;
20379;SDS011;10349;48.666;8.948;2022-08-25T10:04:28;5.37;;;4.97;;
20379;SDS011;10349;48.666;8.948;2022-08-25T10:07:01;4.37;;;4.07;;
20379;SDS011;10349;48.666;8.948;2022-08-25T10:09:32;5.23;;;4.80;;
20379;SDS011;10349;48.666;8.948;2022-08-25T10:12:13;5.80;;;4.83;;
20379;SDS011;10349;48.666;8.948;2022-08-25T10:14:48;4.10;;;3.80;;
20379;SDS011;10349;48.666;8.948;2022-08-25T10:17:22;4.97;;;4.57;;
20379;SDS011;10349;48.666;8.948;2022-08-25T10:20:31;4.40;;;4.10;;
20379;SDS011;10349;48.666;8.948;2022-08-25T10:22:42;4.40;;;4.10;;
20379;SDS011;10349;48.666;8.948;2022-08-25T10:25:10;5.57;;;5.17;;
20379;SDS011;10349;48.666;8.948;2022-08-25T10:31:02;3.97;;;3.77;;
20379;SDS011;10349;48.666;8.948;2022-08-25T10:38:38;4.83;;;4.40;;
20379;SDS011;10349;48.666;8.948;2022-08-25T10:43:46;4.37;;;4.07;;
20379;SDS011;10349;48.666;8.948;2022-08-25T10:49:01;4.67;;;4.00;;
20379;SDS011;10349;48.666;8.948;2022-08-25T10:54:31;4.67;;;4.23;;
20379;SDS011;10349;48.666;8.948;2022-08-25T10:57:18;4.80;;;4.50;;
20379;SDS011;10349;48.666;8.948;2022-08-25T10:59:55;3.83;;;3.63;;
20379;SDS011;10349;48.666;8.948;2022-08-25T11:02:36;4.70;;;4.40;;
20379;SDS011;10349;48.666;8.948;2022-08-25T11:05:08;3.70;;;3.50;;
20379;SDS011;10349;48.666;8.948;2022-08-25T11:07:38;4.40;;;4.20;;
20379;SDS011;10349;48.666;8.948;2022-08-25T11:10:16;3.93;;;3.63;;
20379;SDS011;10349;48.666;8.948;2022-08-25T11:12:50;4.90;;;4.50;;
20379;SDS011;10349;48.666;8.948;2022-08-25T11:15:22;4.20;;;4.00;;
20379;SDS011;10349;48.666;8.948;2022-08-25T11:17:54;4.00;;;3.70;;
20379;SDS011;10349;48.666;8.948;2022-08-25T11:20:45;3.63;;;3.33;;
20379;SDS011;10349;48.666;8.948;2022-08-25T11:23:24;4.13;;;3.93;;
20379;SDS011;10349;48.666;8.948;2022-08-25T11:25:59;4.47;;;4.17;;
20379;SDS011;10349;48.666;8.948;2022-08-25T11:28:33;3.50;;;3.30;;
20379;SDS011;10349;48.666;8.948;2022-08-25T11:31:03;4.30;;;3.93;;
20379;SDS011;10349;48.666;8.948;2022-08-25T11:33:30;3.83;;;3.63;;
20379;SDS011;10349;48.666;8.948;2022-08-25T11:36:01;4.33;;;4.03;;
20379;SDS011;10349;48.666;8.948;2022-08-25T11:41:26;4.33;;;4.10;;
20379;SDS011;10349;48.666;8.948;2022-08-25T11:44:35;3.43;;;3.23;;
20379;SDS011;10349;48.666;8.948;2022-08-25T11:57:52;2.73;;;2.53;;
20379;SDS011;10349;48.666;8.948;2022-08-25T12:00:55;3.80;;;3.60;;
20379;SDS011;10349;48.666;8.948;2022-08-25T12:14:33;2.77;;;2.57;;
20379;SDS011;10349;48.666;8.948;2022-08-25T12:29:59;2.50;;;2.40;;
20379;SDS011;10349;48.666;8.948;2022-08-25T12:35:38;2.80;;;2.60;;
20379;SDS011;10349;48.666;8.948;2022-08-25T12:38:18;4.13;;;2.90;;
20379;SDS011;10349;48.666;8.948;2022-08-25T12:41:09;3.23;;;3.03;;
20379;SDS011;10349;48.666;8.948;2022-08-25T12:43:46;3.30;;;3.10;;
20379;SDS011;10349;48.666;8.948;2022-08-25T12:54:12;3.40;;;3.10;;
20379;SDS011;10349;48.666;8.948;2022-08-25T12:56:44;3.23;;;3.03;;
20379;SDS011;10349;48.666;8.948;2022-08-25T12:59:57;2.87;;;2.70;;
20379;SDS011;10349;48.666;8.948;2022-08-25T13:10:49;2.80;;;2.60;;
20379;SDS011;10349;48.666;8.948;2022-08-25T13:13:36;3.00;;;2.80;;
20379;SDS011;10349;48.666;8.948;2022-08-25T13:16:06;3.53;;;3.33;;
20379;SDS011;10349;48.666;8.948;2022-08-25T13:18:35;3.23;;;3.03;;
20379;SDS011;10349;48.666;8.948;2022-08-25T13:21:24;5.10;;;3.40;;
20379;SDS011;10349;48.666;8.948;2022-08-25T13:23:52;3.50;;;3.30;;
20379;SDS011;10349;48.666;8.948;2022-08-25T13:26:24;3.30;;;3.10;;
20379;SDS011;10349;48.666;8.948;2022-08-25T13:28:56;3.63;;;3.03;;
20379;SDS011;10349;48.666;8.948;2022-08-25T13:31:31;3.27;;;3.07;;
20379;SDS011;10349;48.666;8.948;2022-08-25T13:33:59;3.30;;;2.93;;
20379;SDS011;10349;48.666;8.948;2022-08-25T13:36:30;3.00;;;2.90;;
20379;SDS011;10349;48.666;8.948;2022-08-25T13:39:41;3.67;;;3.37;;
20379;SDS011;10349;48.666;8.948;2022-08-25T13:42:11;3.10;;;2.90;;
20379;SDS011;10349;48.666;8.948;2022-08-25T13:44:40;3.50;;;3.30;;
20379;SDS011;10349;48.666;8.948;2022-08-25T13:47:31;3.47;;;3.27;;
20379;SDS011;10349;48.666;8.948;2022-08-25T13:50:48;3.57;;;3.37;;
20379;SDS011;10349;48.666;8.948;2022-08-25T13:55:18;3.67;;;3.37;;
20379;SDS011;10349;48.666;8.948;2022-08-25T13:57:46;3.53;;;3.33;;
20379;SDS011;10349;48.666;8.948;2022-08-25T14:00:12;3.40;;;3.20;;
20379;SDS011;10349;48.666;8.948;2022-08-25T14:02:50;3.50;;;3.30;;
20379;SDS011;10349;48.666;8.948;2022-08-25T14:05:32;3.73;;;3.30;;
20379;SDS011;10349;48.666;8.948;2022-08-25T14:07:58;3.60;;;3.40;;
20379;SDS011;10349;48.666;8.948;2022-08-25T14:13:14;3.53;;;3.33;;
20379;SDS011;10349;48.666;8.948;2022-08-25T14:15:53;3.20;;;3.00;;
20379;SDS011;10349;48.666;8.948;2022-08-25T14:20:54;3.00;;;2.80;;
20379;SDS011;10349;48.666;8.948;2022-08-25T14:23:25;3.13;;;2.80;;
20379;SDS011;10349;48.666;8.948;2022-08-25T14:25:54;3.00;;;2.80;;
20379;SDS011;10349;48.666;8.948;2022-08-25T14:28:23;2.97;;;2.80;;
20379;SDS011;10349;48.666;8.948;2022-08-25T14:30:51;3.83;;;3.53;;
20379;SDS011;10349;48.666;8.948;2022-08-25T14:33:20;3.13;;;2.93;;
20379;SDS011;10349;48.666;8.948;2022-08-25T14:35:51;2.90;;;2.80;;
20379;SDS011;10349;48.666;8.948;2022-08-25T14:38:18;3.40;;;3.20;;
20379;SDS011;10349;48.666;8.948;2022-08-25T14:40:45;3.30;;;3.10;;
20379;SDS011;10349;48.666;8.948;2022-08-25T14:43:11;4.33;;;3.67;;
20379;SDS011;10349;48.666;8.948;2022-08-25T14:45:39;3.53;;;3.33;;
20379;SDS011;10349;48.666;8.948;2022-08-25T14:48:07;3.20;;;3.03;;
20379;SDS011;10349;48.666;8.948;2022-08-25T14:50:37;3.13;;;2.93;;
20379;SDS011;10349;48.666;8.948;2022-08-25T14:53:04;3.70;;;3.40;;
20379;SDS011;10349;48.666;8.948;2022-08-25T14:55:30;3.77;;;3.47;;
20379;SDS011;10349;48.666;8.948;2022-08-25T14:57:56;3.10;;;2.90;;
20379;SDS011;10349;48.666;8.948;2022-08-25T15:00:21;3.10;;;2.90;;
20379;SDS011;10349;48.666;8.948;2022-08-25T15:02:48;3.20;;;2.80;;
20379;SDS011;10349;48.666;8.948;2022-08-25T15:05:19;3.17;;;2.87;;
20379;SDS011;10349;48.666;8.948;2022-08-25T15:07:48;3.83;;;2.90;;
20379;SDS011;10349;48.666;8.948;2022-08-25T15:10:33;3.43;;;3.10;;
20379;SDS011;10349;48.666;8.948;2022-08-25T15:12:59;4.07;;;3.17;;
20379;SDS011;10349;48.666;8.948;2022-08-25T15:15:24;3.17;;;2.97;;
20379;SDS011;10349;48.666;8.948;2022-08-25T15:17:52;3.30;;;3.10;;
20379;SDS011;10349;48.666;8.948;2022-08-25T15:20:21;2.93;;;2.73;;
20379;SDS011;10349;48.666;8.948;2022-08-25T15:22:47;2.87;;;2.70;;
20379;SDS011;10349;48.666;8.948;2022-08-25T15:25:13;3.10;;;2.90;;
20379;SDS011;10349;48.666;8.948;2022-08-25T15:27:39;3.40;;;3.20;;
20379;SDS011;10349;48.666;8.948;2022-08-25T15:30:05;3.73;;;3.53;;
20379;SDS011;10349;48.666;8.948;2022-08-25T15:32:32;3.50;;;3.30;;
20379;SDS011;10349;48.666;8.948;2022-08-25T15:34:58;3.10;;;2.90;;
20379;SDS011;10349;48.666;8.948;2022-08-25T15:37:25;2.80;;;2.60;;
20379;SDS011;10349;48.666;8.948;2022-08-25T15:39:50;2.67;;;2.47;;
20379;SDS011;10349;48.666;8.948;2022-08-25T15:42:16;3.40;;;3.10;;
20379;SDS011;10349;48.666;8.948;2022-08-25T15:44:42;2.67;;;2.57;;
20379;SDS011;10349;48.666;8.948;2022-08-25T15:47:08;3.10;;;2.90;;
20379;SDS011;10349;48.666;8.948;2022-08-25T15:49:34;3.23;;;3.03;;
20379;SDS011;10349;48.666;8.948;2022-08-25T15:52:00;2.90;;;2.70;;
20379;SDS011;10349;48.666;8.948;2022-08-25T15:54:26;2.67;;;2.57;;
20379;SDS011;10349;48.666;8.948;2022-08-25T15:56:53;2.67;;;2.57;;
20379;SDS011;10349;48.666;8.948;2022-08-25T15:59:20;2.90;;;2.70;;
20379;SDS011;10349;48.666;8.948;2022-08-25T16:01:45;2.80;;;2.57;;
20379;SDS011;10349;48.666;8.948;2022-08-25T16:04:12;2.83;;;2.63;;
20379;SDS011;10349;48.666;8.948;2022-08-25T16:06:38;3.60;;;3.40;;
20379;SDS011;10349;48.666;8.948;2022-08-25T16:09:04;3.00;;;2.80;;
20379;SDS011;10349;48.666;8.948;2022-08-25T16:11:31;2.90;;;2.70;;
20379;SDS011;10349;48.666;8.948;2022-08-25T16:13:59;2.90;;;2.70;;
20379;SDS011;10349;48.666;8.948;2022-08-25T16:16:26;3.23;;;3.00;;
20379;SDS011;10349;48.666;8.948;2022-08-25T16:18:54;3.50;;;3.30;;
20379;SDS011;10349;48.666;8.948;2022-08-25T16:21:22;3.83;;;2.57;;
20379;SDS011;10349;48.666;8.948;2022-08-25T16:23:54;3.60;;;2.90;;
20379;SDS011;10349;48.666;8.948;2022-08-25T16:26:23;2.87;;;2.67;;
20379;SDS011;10349;48.666;8.948;2022-08-25T16:28:50;2.90;;;2.70;;
20379;SDS011;10349;48.666;8.948;2022-08-25T16:31:16;2.30;;;2.20;;
20379;SDS011;10349;48.666;8.948;2022-08-25T16:33:42;3.40;;;3.20;;
20379;SDS011;10349;48.666;8.948;2022-08-25T16:36:10;3.37;;;3.17;;
20379;SDS011;10349;48.666;8.948;2022-08-25T16:38:38;3.60;;;3.40;;
20379;SDS011;10349;48.666;8.948;2022-08-25T16:41:06;3.47;;;3.27;;
20379;SDS011;10349;48.666;8.948;2022-08-25T16:43:35;4.23;;;3.90;;
20379;SDS011;10349;48.666;8.948;2022-08-25T16:46:03;3.60;;;3.40;;
20379;SDS011;10349;48.666;8.948;2022-08-25T16:48:31;3.70;;;3.50;;
20379;SDS011;10349;48.666;8.948;2022-08-25T16:50:57;3.60;;;3.40;;
20379;SDS011;10349;48.666;8.948;2022-08-25T16:53:23;3.50;;;3.30;;
20379;SDS011;10349;48.666;8.948;2022-08-25T16:56:07;3.50;;;3.30;;